createdAt,value
2022-10-22T16:47:22.056Z,6.37
2022-10-22T16:49:52.805Z,5.47
2022-10-22T16:55:12.516Z,6.87
2022-10-22T16:57:40.282Z,6.30
2022-10-22T17:00:08.562Z,7.87
2022-10-22T17:02:37.559Z,7.23
2022-10-22T17:05:05.083Z,7.10
2022-10-22T17:07:32.478Z,6.97
2022-10-22T17:10:01.284Z,7.17
2022-10-22T17:12:28.568Z,7.03
2022-10-22T17:14:55.787Z,7.47
2022-10-22T17:17:23.171Z,7.13
2022-10-22T17:19:50.597Z,8.00
2022-10-22T17:22:18.853Z,7.27
2022-10-22T17:24:46.159Z,6.97
2022-10-22T17:27:13.608Z,6.80
2022-10-22T17:29:40.980Z,6.97
2022-10-22T17:32:08.307Z,6.97
2022-10-22T17:34:35.539Z,7.23
2022-10-22T17:37:02.853Z,6.83
2022-10-22T17:39:30.303Z,6.73
2022-10-22T17:41:57.630Z,7.10
2022-10-22T17:44:27.731Z,6.83
2022-10-22T17:46:56.361Z,7.63
2022-10-22T17:49:26.203Z,7.87
2022-10-22T17:51:55.148Z,7.33
2022-10-22T17:54:22.749Z,7.60
2022-10-22T17:56:55.439Z,6.80
2022-10-22T17:59:27.017Z,6.60
2022-10-22T18:02:00.275Z,6.20
2022-10-22T18:04:36.659Z,6.43
2022-10-22T18:09:55.127Z,7.07
2022-10-22T18:12:26.426Z,7.93
2022-10-22T18:14:58.055Z,6.83
2022-10-22T18:17:28.248Z,7.37
2022-10-22T18:19:59.519Z,7.50
2022-10-22T18:22:29.487Z,5.97
2022-10-22T18:24:59.446Z,6.10
2022-10-22T18:27:29.182Z,7.27
2022-10-22T18:29:58.985Z,7.33
2022-10-22T18:49:21.273Z,9.20
2022-10-22T18:51:53.820Z,10.23
2022-10-22T18:57:03.013Z,10.13
2022-10-22T18:59:34.043Z,11.03
2022-10-22T19:02:05.847Z,10.57
2022-10-22T19:04:39.962Z,10.73
2022-10-22T19:07:25.070Z,10.37
2022-10-22T19:09:58.940Z,10.67
2022-10-22T19:12:37.090Z,10.87
2022-10-22T19:15:09.814Z,9.63
2022-10-22T19:17:38.431Z,8.87
2022-10-22T19:20:07.413Z,7.60
2022-10-22T19:22:37.059Z,6.17
2022-10-22T19:28:18.550Z,4.93
2022-10-22T19:30:48.579Z,4.37
2022-10-22T19:33:17.901Z,4.20
2022-10-22T19:35:48.941Z,5.07
2022-10-22T19:38:18.588Z,3.67
2022-10-22T19:40:52.502Z,3.60
2022-10-22T19:43:20.095Z,3.40
2022-10-22T19:45:48.898Z,3.70
2022-10-22T19:48:22.193Z,3.57
2022-10-22T19:51:01.478Z,2.97
2022-10-22T19:53:30.999Z,3.13
2022-10-22T19:56:00.544Z,2.70
2022-10-22T19:58:29.385Z,3.03
2022-10-22T20:00:56.964Z,3.03
2022-10-22T20:03:28.318Z,2.70
2022-10-22T20:05:56.229Z,2.90
2022-10-22T20:08:23.848Z,2.70
2022-10-22T20:10:52.197Z,2.53
2022-10-22T20:13:19.880Z,3.20
2022-10-22T20:15:54.613Z,3.10
2022-10-22T20:18:27.335Z,3.40
2022-10-22T20:20:56.280Z,3.73
2022-10-22T20:23:25.602Z,5.00
2022-10-22T20:25:53.958Z,4.77
2022-10-22T20:28:25.728Z,5.20
2022-10-22T20:30:55.435Z,5.93
2022-10-22T20:33:23.589Z,5.40
2022-10-22T20:36:06.346Z,5.20
2022-10-22T20:38:34.515Z,5.57
2022-10-22T20:41:08.278Z,5.93
2022-10-22T20:43:37.457Z,7.00
2022-10-22T20:46:05.473Z,7.23
2022-10-22T20:48:34.146Z,7.63
2022-10-22T20:51:02.006Z,6.80
2022-10-22T20:53:29.517Z,7.03
2022-10-22T20:55:59.915Z,7.30
2022-10-22T20:58:27.946Z,7.60
2022-10-22T21:00:55.899Z,8.07
2022-10-22T21:03:23.908Z,8.03
2022-10-22T21:05:51.521Z,7.73
2022-10-22T21:08:19.498Z,8.43
2022-10-22T21:10:49.274Z,8.87
2022-10-22T21:13:19.585Z,8.00
2022-10-22T21:15:47.595Z,8.67
2022-10-22T21:18:15.217Z,7.47
2022-10-22T21:20:42.604Z,7.60
2022-10-22T21:23:10.137Z,7.90
2022-10-22T21:25:40.848Z,7.50
2022-10-22T21:28:10.891Z,8.43
2022-10-22T21:30:46.178Z,7.53
2022-10-22T21:33:13.922Z,7.40
2022-10-22T21:35:41.391Z,7.30
2022-10-22T21:38:08.648Z,6.80
2022-10-22T21:40:39.295Z,6.00
2022-10-22T21:43:09.940Z,6.30
2022-10-22T21:45:37.539Z,5.63
2022-10-22T21:48:05.287Z,6.33
2022-10-22T21:50:32.929Z,6.10
2022-10-22T21:53:01.269Z,5.90
2022-10-22T21:55:31.879Z,6.00
2022-10-22T21:57:59.511Z,6.33
2022-10-22T22:00:26.931Z,5.57
2022-10-22T22:02:54.432Z,6.90
2022-10-22T22:05:22.124Z,6.80
2022-10-22T22:07:49.732Z,7.20
2022-10-22T22:10:18.241Z,7.77
2022-10-22T22:12:46.148Z,8.10
2022-10-22T22:15:14.637Z,7.77
2022-10-22T22:17:44.814Z,8.40
2022-10-22T22:20:16.256Z,9.10
2022-10-22T22:22:45.130Z,7.80
2022-10-22T22:25:13.041Z,8.53
2022-10-22T22:27:41.256Z,9.40
2022-10-22T22:30:10.740Z,8.50
2022-10-22T22:32:39.027Z,9.07
2022-10-22T22:35:07.197Z,7.43
2022-10-22T22:37:35.421Z,8.37
2022-10-22T22:40:05.428Z,7.63
2022-10-22T22:42:33.643Z,7.77
2022-10-22T22:45:01.942Z,6.50
2022-10-22T22:47:31.248Z,7.10
2022-10-22T22:49:59.994Z,6.77
2022-10-22T22:52:30.600Z,6.50
2022-10-22T22:54:58.649Z,6.17
2022-10-22T22:57:26.529Z,6.27
2022-10-22T22:59:55.363Z,6.50
2022-10-22T23:02:23.432Z,6.03
2022-10-22T23:04:56.866Z,5.90
2022-10-22T23:07:25.847Z,5.90
2022-10-22T23:09:53.548Z,5.40
2022-10-22T23:12:22.096Z,6.03
2022-10-22T23:14:51.614Z,5.43
2022-10-22T23:17:21.001Z,5.70
2022-10-22T23:19:49.873Z,5.80
2022-10-22T23:22:20.514Z,5.20
2022-10-22T23:24:49.678Z,5.63
2022-10-22T23:27:19.342Z,5.53
2022-10-22T23:29:48.370Z,5.20
2022-10-22T23:32:17.049Z,4.50
2022-10-22T23:34:46.670Z,5.90
2022-10-22T23:37:14.724Z,5.30
2022-10-22T23:39:43.670Z,5.87
2022-10-22T23:42:11.851Z,5.23
2022-10-22T23:44:39.629Z,5.97
2022-10-22T23:47:08.830Z,6.23
2022-10-22T23:49:36.645Z,6.60
2022-10-22T23:52:04.939Z,7.07
2022-10-22T23:54:33.739Z,6.67
2022-10-22T23:57:02.939Z,6.97
2022-10-22T23:59:31.285Z,7.43
